Time;durP1;ratioP1;P1;durP2;ratioP2;P2;SDS_P1;SDS_P2;PMS_P1;PMS_P2;Temp;Humidity;BMP_temperature;BMP_pressure;BME280_temperature;BME280_humidity;BME280_pressure;Samples;Min_cycle;Max_cycle;Signal;HPM_P1;HPM_P2
2022/12/22 03:28:08;;;;;;;2.13;1.98;;;15.50;66.90;;;;;;5052465;28;20086;-79
2022/12/22 03:30:34;;;;;;;2.08;1.83;;;15.40;67.20;;;;;;5052266;28;20029;-79
2022/12/22 03:33:00;;;;;;;3.63;2.38;;;15.40;66.80;;;;;;5051882;28;20061;-80
2022/12/22 03:35:26;;;;;;;2.83;2.60;;;15.50;66.90;;;;;;5052002;28;20060;-79
2022/12/22 03:37:51;;;;;;;2.60;2.40;;;15.40;66.90;;;;;;5051934;28;20104;-79
2022/12/22 03:40:17;;;;;;;2.42;2.20;;;15.50;66.90;;;;;;5052041;28;20033;-80
2022/12/22 03:48:11;;;;;;;2.45;2.25;;;15.70;80.00;;;;;;5051941;28;20036;-79
2022/12/22 03:50:37;;;;;;;2.38;2.17;;;15.40;66.80;;;;;;5055030;28;20036;-79
2022/12/22 03:53:03;;;;;;;3.03;2.40;;;15.50;67.60;;;;;;5055346;28;20053;-79
2022/12/22 03:55:29;;;;;;;2.75;2.22;;;15.50;66.90;;;;;;5055578;28;20032;-79
2022/12/22 03:57:54;;;;;;;2.50;2.30;;;15.50;66.90;;;;;;5055610;28;20398;-79
2022/12/22 04:00:20;;;;;;;3.10;2.50;;;15.40;66.90;;;;;;5055623;28;20099;-80
2022/12/22 04:02:45;;;;;;;2.97;2.22;;;15.50;66.90;;;;;;5055518;28;20379;-80
2022/12/22 04:05:11;;;;;;;2.65;2.40;;;15.40;66.80;;;;;;5055328;28;20029;-79
2022/12/22 04:07:37;;;;;;;2.30;2.05;;;15.50;66.90;;;;;;5055262;28;20036;-80
2022/12/22 04:12:55;;;;;;;2.67;2.40;;;15.40;66.90;;;;;;5055341;28;20052;-79
2022/12/22 04:15:27;;;;;;;2.78;2.30;;;15.50;66.90;;;;;;5055210;28;20029;-79
2022/12/22 04:17:53;;;;;;;2.50;2.10;;;15.50;66.90;;;;;;5055288;28;20090;-80
2022/12/22 04:20:21;;;;;;;2.40;2.20;;;15.50;79.90;;;;;;5055105;28;20075;-79
2022/12/22 04:22:47;;;;;;;2.53;2.20;;;15.50;66.90;;;;;;5055167;28;20021;-79
2022/12/22 04:25:13;;;;;;;2.50;2.30;;;15.50;66.90;;;;;;5054985;28;20403;-79
2022/12/22 04:27:39;;;;;;;2.25;2.10;;;15.40;66.80;;;;;;5054990;28;20017;-79
2022/12/22 04:30:06;;;;;;;2.20;2.00;;;15.40;66.80;;;;;;5055039;28;20100;-80
2022/12/22 04:32:32;;;;;;;2.90;2.63;;;15.40;80.50;;;;;;5054612;28;20399;-79
2022/12/22 04:34:58;;;;;;;2.30;2.10;;;15.40;66.80;;;;;;5054982;28;20013;-80
2022/12/22 04:37:23;;;;;;;2.65;2.45;;;15.40;66.80;;;;;;5054832;28;20044;-79
2022/12/22 04:39:49;;;;;;;2.28;2.08;;;15.50;67.00;;;;;;5054789;28;20075;-79
2022/12/22 04:42:14;;;;;;;2.97;2.25;;;15.50;67.00;;;;;;5054765;28;20083;-79
2022/12/22 04:44:40;;;;;;;2.60;2.40;;;15.50;66.90;;;;;;5054933;28;20368;-80
2022/12/22 04:47:06;;;;;;;3.95;2.45;;;15.50;67.00;;;;;;5054588;28;20056;-79
2022/12/22 04:49:31;;;;;;;2.45;2.17;;;15.50;67.00;;;;;;5054556;28;20025;-79
2022/12/22 04:51:57;;;;;;;2.22;2.05;;;15.50;67.00;;;;;;5054023;28;20105;-79
2022/12/22 04:54:22;;;;;;;2.47;2.22;;;15.50;67.10;;;;;;5054619;28;20021;-80
2022/12/22 04:56:49;;;;;;;2.55;2.35;;;15.50;67.00;;;;;;5054611;28;20029;-79
2022/12/22 04:59:15;;;;;;;3.25;2.70;;;15.50;67.00;;;;;;5054509;28;20383;-80
2022/12/22 05:01:40;;;;;;;2.28;2.08;;;15.50;67.10;;;;;;5053320;28;20025;-80
2022/12/22 05:04:06;;;;;;;2.75;2.55;;;15.50;79.90;;;;;;5054238;28;20103;-79
2022/12/22 05:06:32;;;;;;;2.40;2.20;;;15.50;67.10;;;;;;5054336;28;20108;-79
2022/12/22 05:08:57;;;;;;;2.10;1.90;;;15.50;67.10;;;;;;5054297;28;20025;-79
2022/12/22 05:11:23;;;;;;;2.50;2.30;;;15.50;67.10;;;;;;5054177;28;20072;-79
2022/12/22 05:13:48;;;;;;;2.97;2.45;;;15.50;67.10;;;;;;5053986;28;20029;-79
2022/12/22 05:16:16;;;;;;;2.40;2.03;;;15.50;67.10;;;;;;5054006;28;20025;-79
2022/12/22 05:18:43;;;;;;;2.60;2.28;;;15.50;67.10;;;;;;5036055;28;20438;-79
2022/12/22 05:21:15;;;;;;;2.05;1.83;;;15.60;67.10;;;;;;5053683;28;20017;-79
2022/12/22 05:23:41;;;;;;;2.72;2.53;;;15.60;67.20;;;;;;5053550;28;20059;-79
2022/12/22 05:26:07;;;;;;;3.40;2.63;;;15.60;67.30;;;;;;5035895;28;20028;-79
2022/12/22 05:28:33;;;;;;;2.47;2.28;;;15.50;80.10;;;;;;5053789;28;20040;-79
2022/12/22 05:31:09;;;;;;;2.35;2.10;;;15.60;67.30;;;;;;5054229;28;20029;-79
2022/12/22 05:33:35;;;;;;;2.50;2.30;;;15.60;67.40;;;;;;5053674;28;20025;-80
2022/12/22 05:36:01;;;;;;;2.45;2.25;;;15.60;67.40;;;;;;5053639;28;20506;-79
2022/12/22 05:38:27;;;;;;;2.30;2.00;;;;;;;;;;5053844;28;20124;-80
2022/12/22 05:40:53;;;;;;;3.03;2.67;;;15.60;67.00;;;;;;5053442;28;20332;-79
2022/12/22 05:43:19;;;;;;;2.35;2.15;;;15.60;67.60;;;;;;5053587;28;20112;-80
2022/12/22 05:45:45;;;;;;;2.63;2.42;;;15.40;80.70;;;;;;5053504;28;20100;-79
2022/12/22 05:48:10;;;;;;;3.47;2.60;;;15.30;80.50;;;;;;5053437;28;20025;-79
2022/12/22 05:50:36;;;;;;;2.90;2.70;;;15.60;67.80;;;;;;5053700;28;20116;-79
2022/12/22 05:53:02;;;;;;;3.10;2.80;;;15.60;68.50;;;;;;5053355;28;20574;-79
2022/12/22 05:55:28;;;;;;;3.15;2.92;;;15.60;67.90;;;;;;5053395;28;20051;-79
2022/12/22 05:57:53;;;;;;;3.15;2.80;;;15.60;68.00;;;;;;5053225;28;20025;-79
2022/12/22 06:00:19;;;;;;;2.97;2.78;;;15.80;80.90;;;;;;5053206;28;20044;-78
2022/12/22 06:02:45;;;;;;;3.88;3.00;;;15.50;80.80;;;;;;5052989;28;20479;-78
2022/12/22 06:05:12;;;;;;;3.38;3.08;;;15.60;68.00;;;;;;5053325;28;20147;-79
2022/12/22 06:07:38;;;;;;;4.13;3.80;;;15.40;80.70;;;;;;5053233;28;20033;-78
2022/12/22 06:10:08;;;;;;;4.60;4.20;;;15.60;68.20;;;;;;5053047;28;20025;-78
2022/12/22 06:12:34;;;;;;;4.50;4.20;;;15.60;68.30;;;;;;5052596;28;20044;-78
2022/12/22 06:14:59;;;;;;;4.10;3.80;;;15.60;68.30;;;;;;5053100;28;20021;-78
2022/12/22 06:17:25;;;;;;;5.03;4.60;;;15.60;68.30;;;;;;5052815;28;20025;-78
2022/12/22 06:19:51;;;;;;;4.85;4.53;;;15.60;68.40;;;;;;5052824;28;20100;-80
2022/12/22 06:22:16;;;;;;;5.35;4.95;;;15.60;68.40;;;;;;5052949;28;20032;-84
2022/12/22 06:24:42;;;;;;;5.43;5.03;;;15.60;68.40;;;;;;5053468;28;20029;-87
2022/12/22 06:27:09;;;;;;;5.03;4.57;;;15.60;68.40;;;;;;5052695;28;20029;-74
2022/12/22 06:29:35;;;;;;;4.60;4.25;;;15.60;68.40;;;;;;5052525;28;20029;-75
2022/12/22 06:32:01;;;;;;;5.18;4.78;;;15.90;81.20;;;;;;5052575;28;20098;-74
2022/12/22 06:34:27;;;;;;;5.18;4.78;;;15.60;68.40;;;;;;5052722;28;20466;-76
2022/12/22 06:36:52;;;;;;;5.10;4.60;;;15.70;68.30;;;;;;5055350;28;20064;-75
2022/12/22 06:39:18;;;;;;;5.28;4.88;;;15.70;68.30;;;;;;5052653;28;20491;-76
2022/12/22 06:44:28;;;;;;;4.70;4.30;;;15.70;68.20;;;;;;5052609;28;20040;-76
2022/12/22 06:46:54;;;;;;;4.50;4.18;;;15.70;68.20;;;;;;5052382;28;20426;-75
2022/12/22 06:49:20;;;;;;;4.72;4.32;;;15.70;68.20;;;;;;5052330;28;20010;-76
2022/12/22 06:51:46;;;;;;;3.88;3.58;;;15.70;81.20;;;;;;5052101;28;20033;-75
2022/12/22 06:54:11;;;;;;;3.90;3.60;;;15.70;68.20;;;;;;5034480;28;20399;-75
2022/12/22 06:56:37;;;;;;;3.85;3.55;;;15.70;68.00;;;;;;5052105;28;20021;-75
2022/12/22 06:59:03;;;;;;;3.80;3.50;;;15.70;68.00;;;;;;5052075;28;20033;-75
2022/12/22 07:01:29;;;;;;;4.10;3.70;;;15.70;67.90;;;;;;5052588;28;20060;-75
2022/12/22 07:03:54;;;;;;;4.47;3.15;;;15.60;80.40;;;;;;5052278;28;20021;-75
2022/12/22 07:06:20;;;;;;;3.95;3.50;;;15.70;67.90;;;;;;5052340;28;20100;-75
2022/12/22 07:08:46;;;;;;;3.70;3.35;;;15.70;67.80;;;;;;5052150;28;20430;-75
2022/12/22 07:11:13;;;;;;;3.50;3.08;;;15.70;67.80;;;;;;5034255;28;20036;-75
2022/12/22 07:13:39;;;;;;;4.05;3.40;;;15.70;67.80;;;;;;5052107;28;20108;-75
2022/12/22 07:16:06;;;;;;;3.00;2.80;;;15.70;67.70;;;;;;5051924;28;20447;-75
2022/12/22 07:18:34;;;;;;;3.28;3.03;;;15.70;67.60;;;;;;5051868;28;20116;-75
2022/12/22 07:21:02;;;;;;;4.88;2.97;;;15.70;67.60;;;;;;5051954;28;20033;-75
2022/12/22 07:23:28;;;;;;;4.35;3.05;;;15.70;67.50;;;;;;5051771;28;20071;-74
2022/12/22 07:25:54;;;;;;;3.40;3.10;;;15.70;67.50;;;;;;5055834;28;20104;-74
2022/12/22 07:28:20;;;;;;;3.30;3.00;;;;;;;;;;5037876;28;20108;-74
2022/12/22 07:30:46;;;;;;;4.35;2.53;;;15.70;66.90;;;;;;5055719;28;20037;-73
2022/12/22 07:33:11;;;;;;;3.33;2.65;;;15.50;80.10;;;;;;5055607;28;20029;-74
2022/12/22 07:35:37;;;;;;;3.53;2.72;;;15.70;67.40;;;;;;5055708;28;20075;-74
2022/12/22 07:38:02;;;;;;;2.60;2.30;;;15.70;67.40;;;;;;5055675;28;20475;-74
2022/12/22 07:40:28;;;;;;;2.60;2.25;;;15.70;80.20;;;;;;5037670;28;20112;-73
2022/12/22 07:42:58;;;;;;;6.78;2.55;;;15.70;68.00;;;;;;5055359;28;20471;-74
2022/12/22 07:45:24;;;;;;;2.10;1.98;;;15.70;67.30;;;;;;5055511;28;20417;-73
2022/12/22 07:47:50;;;;;;;3.92;2.15;;;15.70;67.20;;;;;;5055418;28;20108;-73
2022/12/22 07:50:24;;;;;;;2.63;2.17;;;15.70;67.20;;;;;;5055926;28;20112;-74
2022/12/22 07:53:01;;;;;;;3.35;2.10;;;15.70;67.20;;;;;;5055902;28;20055;-74
2022/12/22 07:55:29;;;;;;;3.20;2.67;;;15.70;67.10;;;;;;5055787;28;20021;-74
2022/12/22 07:57:55;;;;;;;3.88;2.28;;;15.70;66.90;;;;;;5055901;28;20100;-74
2022/12/22 08:00:22;;;;;;;3.70;2.40;;;15.70;66.90;;;;;;5055301;28;20059;-73
2022/12/22 08:02:49;;;;;;;4.82;2.58;;;;;;;;;;5055044;28;20029;-74
2022/12/22 08:05:15;;;;;;;3.97;2.35;;;15.50;79.40;;;;;;5054872;28;20071;-74
2022/12/22 08:07:40;;;;;;;2.75;2.20;;;15.60;66.80;;;;;;5054896;28;20061;-74
2022/12/22 08:10:07;;;;;;;3.58;2.28;;;15.60;66.80;;;;;;5054952;28;20025;-74
2022/12/22 08:12:32;;;;;;;2.90;1.95;;;15.70;66.80;;;;;;5054388;28;20037;-74
2022/12/22 08:14:58;;;;;;;3.42;2.05;;;15.70;66.80;;;;;;5054948;28;20029;-73
2022/12/22 08:17:26;;;;;;;3.53;2.30;;;15.70;66.70;;;;;;5054428;28;20397;-74
2022/12/22 08:19:52;;;;;;;2.20;1.70;;;15.60;66.70;;;;;;5036464;28;20023;-73
2022/12/22 08:22:18;;;;;;;2.83;1.75;;;15.60;66.60;;;;;;5054385;28;20106;-73
2022/12/22 08:35:54;;;;;;;2.70;1.95;;;15.60;66.30;;;;;;4961639;28;20038;-73
2022/12/22 08:38:20;;;;;;;3.10;1.73;;;15.60;66.30;;;;;;4956276;29;20029;-75
2022/12/22 08:40:47;;;;;;;4.82;1.70;;;15.60;66.30;;;;;;4956462;29;20132;-75
2022/12/22 08:43:13;;;;;;;2.25;1.80;;;15.60;66.30;;;;;;4956328;29;20059;-73
2022/12/22 08:45:41;;;;;;;2.53;1.80;;;15.60;66.30;;;;;;4955842;29;20382;-75
2022/12/22 08:48:08;;;;;;;3.03;1.65;;;15.60;66.20;;;;;;4956432;29;20030;-75
2022/12/22 08:50:33;;;;;;;2.47;1.80;;;15.60;66.20;;;;;;4956184;29;20114;-73
2022/12/22 08:53:06;;;;;;;3.33;2.13;;;15.60;66.20;;;;;;4956158;29;20114;-75
2022/12/22 08:55:32;;;;;;;2.92;2.00;;;15.60;66.10;;;;;;4954949;29;20470;-73
2022/12/22 08:57:58;;;;;;;3.10;1.88;;;15.60;66.10;;;;;;4956069;29;20035;-75
2022/12/22 09:00:24;;;;;;;3.20;1.83;;;15.60;66.20;;;;;;4955988;29;20027;-75
2022/12/22 09:02:50;;;;;;;2.90;1.45;;;15.60;66.30;;;;;;4956072;29;20027;-75
2022/12/22 09:05:16;;;;;;;3.40;1.63;;;15.60;66.30;;;;;;4956061;29;20027;-76
2022/12/22 09:07:42;;;;;;;2.67;1.58;;;15.60;66.30;;;;;;4955945;29;20377;-76
2022/12/22 09:10:09;;;;;;;1.83;1.52;;;15.60;66.20;;;;;;4955326;29;20082;-76
2022/12/22 09:12:35;;;;;;;2.40;1.73;;;15.60;66.20;;;;;;4955712;29;20039;-77
2022/12/22 09:15:00;;;;;;;3.80;1.75;;;15.60;66.20;;;;;;4955502;29;20031;-77
2022/12/22 09:17:26;;;;;;;2.25;1.83;;;15.60;66.20;;;;;;4955805;29;20031;-77
2022/12/22 09:19:52;;;;;;;3.00;1.52;;;15.60;66.20;;;;;;4955660;29;20027;-76
2022/12/22 09:22:17;;;;;;;1.77;1.40;;;15.60;66.20;;;;;;4955921;29;20027;-76
2022/12/22 09:24:43;;;;;;;5.30;1.30;;;15.60;66.10;;;;;;4955687;29;20075;-76
2022/12/22 09:27:09;;;;;;;2.78;1.67;;;15.60;66.10;;;;;;4955560;29;20066;-74
2022/12/22 09:29:36;;;;;;;3.85;1.90;;;15.60;66.10;;;;;;4955272;29;20075;-77
2022/12/22 09:32:02;;;;;;;2.88;1.80;;;15.60;66.10;;;;;;4955171;28;20051;-76
2022/12/22 09:34:28;;;;;;;4.93;1.83;;;15.60;66.10;;;;;;4956447;29;20423;-79
2022/12/22 09:36:53;;;;;;;3.30;1.80;;;15.60;66.10;;;;;;4955356;29;20111;-75
2022/12/22 09:39:19;;;;;;;1.70;1.45;;;15.60;66.70;;;;;;4955545;29;20030;-77
2022/12/22 09:41:51;;;;;;;3.53;1.98;;;15.60;66.10;;;;;;4955265;29;20097;-77
2022/12/22 09:44:37;;;;;;;2.80;1.80;;;15.60;66.00;;;;;;4955276;29;20023;-77
2022/12/22 09:47:15;;;;;;;3.58;2.00;;;15.60;66.00;;;;;;4954773;28;20051;-77
2022/12/22 09:49:40;;;;;;;3.22;1.90;;;15.60;65.90;;;;;;4955234;29;20038;-76
2022/12/22 09:52:22;;;;;;;2.63;1.80;;;15.60;65.90;;;;;;4955095;29;20606;-74
2022/12/22 09:54:49;;;;;;;2.05;1.77;;;15.60;65.70;;;;;;4954974;29;20106;-74
2022/12/22 09:57:14;;;;;;;2.85;1.70;;;15.60;65.60;;;;;;4954968;29;20031;-75
2022/12/22 09:59:40;;;;;;;3.55;1.85;;;15.70;65.60;;;;;;4955024;29;20536;-73
2022/12/22 10:02:26;;;;;;;3.00;1.55;;;15.70;65.50;;;;;;4954882;29;20542;-73
2022/12/22 10:05:02;;;;;;;2.03;1.70;;;15.70;65.40;;;;;;4954967;29;20031;-71
2022/12/22 10:07:33;;;;;;;3.40;1.58;;;15.80;65.40;;;;;;4955165;29;20031;-72
2022/12/22 10:10:26;;;;;;;3.90;1.52;;;15.80;65.20;;;;;;4954789;29;20031;-72
2022/12/22 10:12:55;;;;;;;2.60;1.65;;;15.80;65.80;;;;;;4954655;29;20054;-71
2022/12/22 10:15:21;;;;;;;3.60;1.73;;;15.80;65.70;;;;;;4954677;29;20034;-71
2022/12/22 10:17:50;;;;;;;2.30;1.70;;;15.90;65.00;;;;;;4954553;29;20042;-71
2022/12/22 10:20:26;;;;;;;3.30;1.67;;;15.90;64.90;;;;;;4954589;29;20036;-68
2022/12/22 10:23:00;;;;;;;3.97;2.05;;;16.00;64.90;;;;;;4954544;29;20043;-68
2022/12/22 10:25:26;;;;;;;2.15;1.52;;;16.00;64.70;;;;;;4954664;29;20023;-68
2022/12/22 10:27:53;;;;;;;3.90;1.38;;;16.00;64.60;;;;;;4954410;29;20050;-68
2022/12/22 10:30:23;;;;;;;1.58;1.13;;;16.10;64.60;;;;;;4954319;28;20027;-68
2022/12/22 10:33:04;;;;;;;2.47;1.20;;;16.10;64.40;;;;;;4937144;29;20508;-68
2022/12/22 10:35:49;;;;;;;1.73;1.30;;;16.20;64.40;;;;;;4954485;29;20035;-68
2022/12/22 10:38:26;;;;;;;4.38;1.60;;;16.20;64.20;;;;;;4954527;29;20058;-68
2022/12/22 10:41:16;;;;;;;3.92;1.83;;;16.30;64.30;;;;;;4954398;29;20031;-68
2022/12/22 10:44:11;;;;;;;;;;;16.30;64.00;;;;;;4954061;29;20042;-68
2022/12/22 10:46:41;;;;;;;1.73;1.35;;;16.30;63.90;;;;;;4945101;29;20377;-68
2022/12/22 10:49:23;;;;;;;2.83;1.13;;;16.40;63.80;;;;;;4954568;29;20384;-68
2022/12/22 10:51:54;;;;;;;3.25;1.27;;;16.40;63.80;;;;;;4954015;29;20656;-67
2022/12/22 10:54:31;;;;;;;2.30;1.38;;;16.50;63.80;;;;;;4954118;29;20031;-67
2022/12/22 10:57:01;;;;;;;4.53;1.67;;;16.40;63.80;;;;;;4954267;29;20042;-72
2022/12/22 10:59:27;;;;;;;2.20;1.30;;;16.40;64.00;;;;;;4953334;29;20031;-71
2022/12/22 11:01:52;;;;;;;3.55;1.70;;;16.30;64.20;;;;;;4954016;29;20436;-71
2022/12/22 11:04:25;;;;;;;2.08;1.30;;;16.30;64.50;;;;;;4954148;29;20513;-71
2022/12/22 11:06:57;;;;;;;2.67;1.92;;;16.30;64.70;;;;;;4954156;29;20033;-70
2022/12/22 11:09:25;;;;;;;3.80;1.65;;;16.20;64.90;;;;;;4954020;29;20667;-73
2022/12/22 11:12:12;;;;;;;2.80;1.73;;;16.20;65.00;;;;;;4953836;29;20529;-73
2022/12/22 11:14:54;;;;;;;3.20;1.90;;;16.20;65.10;;;;;;4954099;29;20036;-67
2022/12/22 11:17:34;;;;;;;4.38;2.45;;;16.10;65.10;;;;;;4954336;29;20031;-66
2022/12/22 11:20:27;;;;;;;3.70;2.20;;;16.10;65.20;;;;;;4953884;29;20082;-67
2022/12/22 11:23:27;;;;;;;5.70;2.70;;;16.10;65.20;;;;;;4953843;29;20051;-66
2022/12/22 11:25:58;;;;;;;5.43;3.45;;;16.00;65.20;;;;;;4953817;29;20031;-67
2022/12/22 11:28:41;;;;;;;4.40;3.22;;;16.00;65.30;;;;;;4953830;29;20405;-67
2022/12/22 11:31:32;;;;;;;3.83;3.40;;;16.00;65.30;;;;;;4953551;28;20156;-67
2022/12/22 11:34:12;;;;;;;3.30;2.88;;;15.90;65.30;;;;;;4953609;29;20031;-68
2022/12/22 11:37:05;;;;;;;3.92;3.25;;;16.00;65.30;;;;;;4953813;29;20465;-72
2022/12/22 11:39:40;;;;;;;4.95;3.35;;;15.90;65.80;;;;;;4953479;29;20037;-68
2022/12/22 11:42:38;;;;;;;6.05;3.58;;;15.90;65.30;;;;;;4953413;29;20023;-67
2022/12/22 11:45:25;;;;;;;5.18;4.05;;;16.00;65.10;;;;;;4952324;29;20023;-66
2022/12/22 11:48:29;;;;;;;4.00;3.58;;;15.40;65.00;;;;;;4952333;29;20036;-66
2022/12/22 11:50:59;;;;;;;5.97;3.17;;;15.90;65.30;;;;;;4952278;29;20058;-73
2022/12/22 11:53:55;;;;;;;3.80;3.35;;;15.90;65.20;;;;;;4952210;29;20075;-73
2022/12/22 11:56:22;;;;;;;5.15;3.42;;;15.90;65.30;;;;;;4952213;29;20051;-73
2022/12/22 11:59:28;;;;;;;5.47;3.65;;;15.90;65.20;;;;;;4953031;29;20027;-72
2022/12/22 12:02:34;;;;;;;3.90;3.10;;;15.80;65.20;;;;;;4953564;29;20023;-72
2022/12/22 12:05:36;;;;;;;5.65;3.40;;;15.80;65.20;;;;;;4953487;29;20035;-72
2022/12/22 12:08:33;;;;;;;8.30;3.30;;;15.90;65.20;;;;;;4953490;29;20031;-72
2022/12/22 12:11:24;;;;;;;6.22;4.07;;;15.80;65.20;;;;;;4955510;28;20074;-67
2022/12/22 12:14:07;;;;;;;5.38;3.58;;;15.80;65.10;;;;;;4956889;29;20043;-67
2022/12/22 12:16:43;;;;;;;4.40;3.55;;;15.80;65.00;;;;;;4956797;29;20425;-67
2022/12/22 12:19:21;;;;;;;5.00;3.20;;;15.80;65.00;;;;;;4956797;29;20454;-67
2022/12/22 12:22:08;;;;;;;4.30;3.70;;;15.80;64.90;;;;;;4956820;29;20043;-67
2022/12/22 12:25:00;;;;;;;4.53;3.38;;;15.80;64.90;;;;;;4939363;29;20036;-67
2022/12/22 12:27:56;;;;;;;4.82;3.22;;;15.80;64.90;;;;;;4956724;29;20035;-71
2022/12/22 12:30:23;;;;;;;4.40;3.17;;;15.80;64.70;;;;;;4956329;28;20027;-72
2022/12/22 12:32:57;;;;;;;4.07;3.28;;;15.80;64.90;;;;;;4956552;29;20040;-72
2022/12/22 12:35:29;;;;;;;5.13;3.00;;;15.70;64.80;;;;;;4956575;29;20087;-72
2022/12/22 12:38:01;;;;;;;4.75;3.42;;;15.70;64.80;;;;;;4956479;29;20401;-72
2022/12/22 12:40:45;;;;;;;6.03;4.05;;;15.70;64.60;;;;;;4956478;29;20038;-72
2022/12/22 12:43:12;;;;;;;4.32;3.50;;;15.70;77.20;;;;;;4956473;29;20031;-72
2022/12/22 12:45:47;;;;;;;5.03;3.15;;;15.70;64.60;;;;;;4956349;29;20023;-72
2022/12/22 12:48:19;;;;;;;5.75;3.70;;;15.70;64.60;;;;;;4956260;29;20115;-73
2022/12/22 12:50:48;;;;;;;4.53;3.47;;;15.70;64.60;;;;;;4956150;29;20051;-72
2022/12/22 12:53:15;;;;;;;3.63;3.10;;;15.70;64.60;;;;;;4956373;29;20031;-72
2022/12/22 12:55:47;;;;;;;5.85;3.25;;;15.70;64.50;;;;;;4956112;29;20031;-71
2022/12/22 12:58:36;;;;;;;6.70;4.40;;;15.70;64.40;;;;;;4956222;29;20367;-72
2022/12/22 13:01:04;;;;;;;4.47;3.03;;;15.70;64.50;;;;;;4955937;29;20031;-72
2022/12/22 13:03:29;;;;;;;4.90;2.97;;;15.70;64.50;;;;;;4955877;29;20103;-71
2022/12/22 13:06:00;;;;;;;4.28;3.63;;;15.70;64.50;;;;;;4955964;29;20106;-72
2022/12/22 13:08:28;;;;;;;4.57;3.17;;;15.70;64.40;;;;;;4955899;29;20062;-72
2022/12/22 13:10:53;;;;;;;5.97;3.38;;;15.60;64.40;;;;;;4955725;29;20031;-72
2022/12/22 13:13:25;;;;;;;5.80;3.75;;;15.70;64.40;;;;;;4955603;29;20445;-72
2022/12/22 13:15:59;;;;;;;5.03;3.55;;;15.60;64.40;;;;;;4955681;29;20040;-72
2022/12/22 13:18:25;;;;;;;4.43;3.50;;;15.60;64.40;;;;;;4955665;29;20031;-72
2022/12/22 13:20:57;;;;;;;9.55;3.53;;;15.60;64.40;;;;;;4955574;29;20109;-72
2022/12/22 13:23:27;;;;;;;4.70;3.65;;;15.60;64.40;;;;;;4954886;28;20023;-72
2022/12/22 13:25:57;;;;;;;4.10;3.55;;;15.60;64.40;;;;;;4955658;29;20123;-72
2022/12/22 13:28:24;;;;;;;5.03;3.90;;;15.60;64.40;;;;;;4955532;29;20030;-72
2022/12/22 13:31:00;;;;;;;3.17;2.88;;;15.60;64.40;;;;;;4955259;28;20051;-72
2022/12/22 13:33:29;;;;;;;5.93;3.75;;;15.60;64.40;;;;;;4955242;29;20050;-72
2022/12/22 13:35:57;;;;;;;7.18;3.78;;;15.60;64.40;;;;;;4955306;29;20482;-72
2022/12/22 13:38:29;;;;;;;4.35;3.78;;;15.60;64.40;;;;;;4955174;29;20050;-72
2022/12/22 13:40:57;;;;;;;3.92;3.53;;;15.60;64.40;;;;;;4955265;29;20473;-72
2022/12/22 13:43:25;;;;;;;3.60;3.30;;;15.60;64.80;;;;;;4938128;29;20030;-72
2022/12/22 13:45:53;;;;;;;4.95;3.50;;;15.60;64.50;;;;;;4954997;29;20027;-72
2022/12/22 13:48:32;;;;;;;4.75;3.20;;;15.60;64.40;;;;;;4955048;29;20023;-72
2022/12/22 13:51:02;;;;;;;3.83;3.15;;;15.60;64.40;;;;;;4955370;29;20109;-74
2022/12/22 13:53:45;;;;;;;3.97;3.05;;;15.60;64.40;;;;;;4954832;29;20039;-73
2022/12/22 13:56:23;;;;;;;4.20;3.40;;;15.60;64.50;;;;;;4954922;29;20028;-72
2022/12/22 13:58:57;;;;;;;4.40;3.72;;;15.60;64.50;;;;;;4955017;29;20587;-72
2022/12/22 14:01:24;;;;;;;4.97;3.35;;;15.60;64.50;;;;;;4937538;29;20074;-71
2022/12/22 14:04:00;;;;;;;4.07;3.33;;;15.60;64.50;;;;;;4954805;29;20034;-71
2022/12/22 14:06:29;;;;;;;3.40;3.10;;;15.60;64.60;;;;;;4954785;29;20039;-71
2022/12/22 14:09:26;;;;;;;4.10;3.70;;;15.60;65.30;;;;;;4954806;29;20366;-72
2022/12/22 14:12:00;;;;;;;4.50;3.50;;;15.60;64.60;;;;;;4954563;29;20093;-72
2022/12/22 14:14:46;;;;;;;5.65;3.60;;;15.60;64.60;;;;;;4954999;29;20359;-71
2022/12/22 14:17:28;;;;;;;4.00;3.03;;;15.50;64.60;;;;;;4954679;29;20035;-72
2022/12/22 14:19:56;;;;;;;3.30;3.00;;;15.60;64.60;;;;;;4954549;29;20482;-72
2022/12/22 14:22:29;;;;;;;4.30;3.28;;;15.60;64.70;;;;;;4954583;29;20050;-72
2022/12/22 14:25:00;;;;;;;3.63;3.20;;;15.50;64.60;;;;;;4954481;29;20027;-72
2022/12/22 14:27:38;;;;;;;4.32;2.97;;;15.60;64.70;;;;;;4954552;29;20098;-72
2022/12/22 14:30:14;;;;;;;5.22;3.28;;;15.50;77.50;;;;;;4954357;28;20170;-71
2022/12/22 14:32:42;;;;;;;4.63;3.33;;;15.50;64.70;;;;;;4953952;28;20055;-72
2022/12/22 14:35:19;;;;;;;4.15;3.40;;;15.60;64.70;;;;;;4954417;29;20477;-72
2022/12/22 14:37:45;;;;;;;5.75;3.30;;;15.50;77.60;;;;;;4954279;29;20027;-67
2022/12/22 14:40:29;;;;;;;4.78;3.30;;;15.50;65.30;;;;;;4954312;29;20201;-67
2022/12/22 14:42:57;;;;;;;5.28;3.13;;;15.50;64.70;;;;;;4954290;29;20027;-67
2022/12/22 14:45:23;;;;;;;3.53;3.20;;;15.50;64.70;;;;;;4954219;29;20032;-67
2022/12/22 14:47:49;;;;;;;4.05;3.65;;;15.50;64.80;;;;;;4936849;29;20055;-67
2022/12/22 14:50:26;;;;;;;3.22;2.92;;;15.50;64.80;;;;;;4954165;29;20159;-67
2022/12/22 14:52:59;;;;;;;4.43;3.47;;;15.50;65.40;;;;;;4953982;29;20386;-67
2022/12/22 14:55:38;;;;;;;3.67;3.22;;;15.50;64.80;;;;;;4954168;29;20028;-67
2022/12/22 14:58:08;;;;;;;4.35;3.10;;;15.50;64.70;;;;;;4954132;29;20027;-67
2022/12/22 15:00:39;;;;;;;3.53;3.22;;;15.50;64.80;;;;;;4954342;29;20413;-67
2022/12/22 15:03:23;;;;;;;4.38;3.28;;;15.50;64.80;;;;;;4953894;29;20020;-67
2022/12/22 15:05:49;;;;;;;4.05;3.65;;;15.50;64.80;;;;;;4953919;29;20031;-67
2022/12/22 15:08:37;;;;;;;3.47;3.15;;;15.50;64.80;;;;;;4953893;29;20035;-67
2022/12/22 15:11:07;;;;;;;3.22;2.92;;;15.50;64.80;;;;;;4953778;29;20034;-67
2022/12/22 15:13:32;;;;;;;3.10;2.70;;;15.50;64.80;;;;;;4954217;29;20042;-68
2022/12/22 15:15:58;;;;;;;4.40;3.53;;;15.50;64.80;;;;;;4953957;29;20031;-67
2022/12/22 15:18:26;;;;;;;4.25;2.90;;;15.50;64.80;;;;;;4953914;29;20426;-67
2022/12/22 15:20:55;;;;;;;3.83;3.15;;;15.50;64.70;;;;;;4953754;29;20035;-67
2022/12/22 15:23:21;;;;;;;3.13;2.83;;;15.50;64.80;;;;;;4954053;29;20246;-67
2022/12/22 15:25:47;;;;;;;4.03;2.88;;;15.40;64.70;;;;;;4953847;29;20105;-67
2022/12/22 15:28:13;;;;;;;3.38;2.90;;;15.50;64.80;;;;;;4953770;29;20498;-68
2022/12/22 15:30:39;;;;;;;3.97;2.65;;;15.50;64.70;;;;;;4952255;28;20406;-68
2022/12/22 15:33:13;;;;;;;3.58;2.83;;;15.40;64.60;;;;;;4953624;29;20035;-68
2022/12/22 15:35:39;;;;;;;2.58;2.38;;;15.40;64.70;;;;;;4953721;29;20034;-68
2022/12/22 15:38:17;;;;;;;2.63;2.40;;;15.40;64.60;;;;;;4953540;29;20036;-67
2022/12/22 15:40:43;;;;;;;3.00;2.70;;;15.40;64.70;;;;;;4953498;29;20024;-67
2022/12/22 15:43:09;;;;;;;2.70;2.47;;;15.40;64.70;;;;;;4953687;29;20418;-67
2022/12/22 15:45:36;;;;;;;2.80;2.60;;;15.40;64.70;;;;;;4954938;28;20030;-67
2022/12/22 15:48:03;;;;;;;2.50;2.30;;;15.40;64.70;;;;;;4957162;29;20073;-67
2022/12/22 15:50:33;;;;;;;2.40;2.20;;;15.40;64.70;;;;;;4957176;29;20024;-72
2022/12/22 15:52:59;;;;;;;;;;;15.40;64.60;;;;;;4957586;29;20470;-72
2022/12/22 15:55:26;;;;;;;2.55;2.35;;;15.40;64.70;;;;;;4957153;29;19997;-72
2022/12/22 15:57:55;;;;;;;2.88;2.60;;;15.40;64.70;;;;;;4956950;29;20057;-72
2022/12/22 16:00:21;;;;;;;3.40;2.67;;;15.40;64.70;;;;;;4956957;29;20047;-71
2022/12/22 16:02:46;;;;;;;2.53;2.33;;;15.40;64.80;;;;;;4956987;29;20038;-72
2022/12/22 16:05:12;;;;;;;3.30;2.25;;;15.40;64.70;;;;;;4956934;29;20023;-72
2022/12/22 16:07:39;;;;;;;2.40;2.20;;;15.40;64.80;;;;;;4956763;29;20173;-72
2022/12/22 16:10:16;;;;;;;3.08;2.15;;;15.40;64.80;;;;;;4956935;29;20023;-71
2022/12/22 16:12:43;;;;;;;2.92;2.15;;;15.40;64.80;;;;;;4956991;29;20043;-70
2022/12/22 16:15:12;;;;;;;2.50;2.30;;;15.40;64.70;;;;;;4956766;29;20035;-71
2022/12/22 16:17:37;;;;;;;2.38;2.20;;;15.40;64.70;;;;;;4956619;29;20035;-71
2022/12/22 16:20:04;;;;;;;2.35;2.13;;;15.40;64.70;;;;;;4956698;29;20085;-70
2022/12/22 16:22:34;;;;;;;2.03;1.92;;;15.40;64.80;;;;;;4956592;29;20097;-70
2022/12/22 16:25:03;;;;;;;2.38;2.17;;;15.30;64.60;;;;;;4956545;29;20023;-71
2022/12/22 16:27:29;;;;;;;2.45;2.20;;;15.30;64.60;;;;;;4956598;29;20027;-67
2022/12/22 16:29:56;;;;;;;2.03;1.83;;;15.30;64.70;;;;;;4956437;29;20019;-70
2022/12/22 16:32:27;;;;;;;2.58;2.38;;;15.30;65.30;;;;;;4956110;29;20058;-68
2022/12/22 16:35:15;;;;;;;2.53;2.13;;;15.30;64.70;;;;;;4956525;29;20023;-69
2022/12/22 16:37:40;;;;;;;2.00;1.90;;;15.30;64.70;;;;;;4956270;29;20027;-68
2022/12/22 16:40:07;;;;;;;2.00;1.90;;;15.30;64.70;;;;;;4956375;29;20126;-69
2022/12/22 16:42:33;;;;;;;1.95;1.85;;;15.30;64.70;;;;;;4956154;29;20089;-69
2022/12/22 16:44:59;;;;;;;2.72;2.28;;;15.30;64.70;;;;;;4955206;29;20027;-68
2022/12/22 16:47:27;;;;;;;2.42;2.22;;;15.30;64.90;;;;;;4955954;29;20023;-77
2022/12/22 16:49:54;;;;;;;2.22;1.80;;;15.30;64.90;;;;;;4956200;29;20111;-67
2022/12/22 16:52:24;;;;;;;3.00;1.98;;;15.30;64.80;;;;;;4955993;29;20019;-68
2022/12/22 16:54:49;;;;;;;2.40;1.58;;;15.30;64.80;;;;;;4956291;29;20030;-69